Time;durP1;ratioP1;P1;durP2;ratioP2;P2;SDS_P1;SDS_P2;PMS_P1;PMS_P2;Temp;Humidity;BMP_temperature;BMP_pressure;BME280_temperature;BME280_humidity;BME280_pressure;Samples;Min_cycle;Max_cycle;Signal;HPM_P1;HPM_P2
2023/03/09 00:02:20;;;;;;;2.17;0.90;;;19.20;49.80;;;;;;5030482;28;20133;-63
2023/03/09 00:04:46;;;;;;;2.83;0.90;;;19.20;49.90;;;;;;5030981;28;20049;-64
2023/03/09 00:07:12;;;;;;;1.50;0.90;;;19.30;50.00;;;;;;5031149;28;20038;-64
2023/03/09 00:09:37;;;;;;;1.33;0.93;;;19.30;49.90;;;;;;5031520;28;20041;-63
2023/03/09 00:12:03;;;;;;;1.45;0.82;;;19.30;49.90;;;;;;5030658;28;20038;-64
2023/03/09 00:14:28;;;;;;;1.17;0.80;;;19.20;49.80;;;;;;5031764;28;20133;-64
2023/03/09 00:16:54;;;;;;;1.88;0.90;;;19.20;49.80;;;;;;5031745;28;20046;-63
2023/03/09 00:19:26;;;;;;;1.48;0.90;;;19.20;49.90;;;;;;5031311;28;20465;-64
2023/03/09 00:21:52;;;;;;;1.55;0.80;;;19.20;49.90;;;;;;5031656;28;20590;-63
2023/03/09 00:24:20;;;;;;;1.67;0.80;;;19.20;49.90;;;;;;5030785;28;20073;-63
2023/03/09 00:26:53;;;;;;;1.13;0.80;;;19.20;49.90;;;;;;5029675;28;20452;-64
2023/03/09 00:29:19;;;;;;;1.15;0.80;;;19.20;49.80;;;;;;5030981;28;20042;-63
2023/03/09 00:31:44;;;;;;;1.40;1.00;;;19.10;49.80;;;;;;5031569;28;20049;-64
2023/03/09 00:34:10;;;;;;;1.20;0.80;;;19.10;49.80;;;;;;5031478;28;20547;-64
2023/03/09 00:36:36;;;;;;;1.48;0.80;;;19.10;49.80;;;;;;5030844;28;20045;-64
2023/03/09 00:39:02;;;;;;;1.70;0.90;;;19.10;49.80;;;;;;5030903;28;20041;-64
2023/03/09 00:41:30;;;;;;;1.80;1.00;;;19.10;49.80;;;;;;5029487;28;20063;-64
2023/03/09 00:43:59;;;;;;;1.65;0.80;;;19.10;49.80;;;;;;5031602;28;20057;-63
2023/03/09 00:46:24;;;;;;;1.40;0.90;;;19.10;49.80;;;;;;5030572;28;20045;-64
2023/03/09 00:48:50;;;;;;;2.25;0.80;;;19.10;49.80;;;;;;5031797;28;20052;-64
2023/03/09 00:51:16;;;;;;;1.85;0.80;;;19.00;49.80;;;;;;5031753;28;20037;-64
2023/03/09 00:53:41;;;;;;;1.75;1.00;;;19.00;49.80;;;;;;5030606;28;20416;-63
2023/03/09 00:56:09;;;;;;;2.03;0.85;;;19.00;49.80;;;;;;5034306;28;20047;-64
2023/03/09 00:58:34;;;;;;;3.13;0.90;;;19.00;49.80;;;;;;5033914;28;20485;-64
2023/03/09 01:01:00;;;;;;;2.25;1.10;;;19.00;49.80;;;;;;5033983;28;20362;-64
2023/03/09 01:03:26;;;;;;;1.85;0.90;;;19.00;49.80;;;;;;5034807;28;20493;-64
2023/03/09 01:05:51;;;;;;;1.20;0.80;;;19.00;49.80;;;;;;5034788;28;20045;-63
2023/03/09 01:08:17;;;;;;;2.25;1.00;;;18.90;49.70;;;;;;5034343;28;20489;-64
2023/03/09 01:10:43;;;;;;;1.95;0.80;;;19.00;49.80;;;;;;5034568;28;21004;-63
2023/03/09 01:13:10;;;;;;;1.75;0.80;;;18.90;49.70;;;;;;5034910;28;20041;-63
2023/03/09 01:15:36;;;;;;;1.85;0.80;;;18.90;49.80;;;;;;5033940;28;20045;-64
2023/03/09 01:18:01;;;;;;;1.20;0.70;;;18.90;49.80;;;;;;5034660;28;20045;-64
2023/03/09 01:20:27;;;;;;;2.13;0.75;;;18.90;49.80;;;;;;5034339;28;20571;-63
2023/03/09 01:22:52;;;;;;;2.22;0.90;;;18.90;49.90;;;;;;5033585;28;20049;-63
2023/03/09 01:25:18;;;;;;;1.10;0.70;;;18.90;49.90;;;;;;5034635;28;20056;-63
2023/03/09 01:27:43;;;;;;;1.83;0.93;;;18.90;49.90;;;;;;5034525;28;20053;-64
2023/03/09 01:30:10;;;;;;;2.00;0.80;;;18.90;50.00;;;;;;5034057;28;20045;-64
2023/03/09 01:32:35;;;;;;;1.02;0.70;;;18.90;50.00;;;;;;5033831;28;20088;-64
2023/03/09 01:35:01;;;;;;;2.42;0.70;;;18.90;50.00;;;;;;5034579;28;20477;-63
2023/03/09 01:37:27;;;;;;;2.05;0.88;;;18.90;50.00;;;;;;5033579;28;20065;-64
2023/03/09 01:39:52;;;;;;;2.10;0.82;;;18.90;50.00;;;;;;5034612;28;20393;-64
2023/03/09 01:42:18;;;;;;;1.83;0.80;;;18.90;50.00;;;;;;5031983;28;20065;-64
2023/03/09 01:44:43;;;;;;;1.27;0.80;;;18.80;49.90;;;;;;5032397;28;20057;-64
2023/03/09 01:47:09;;;;;;;1.67;0.93;;;18.90;50.00;;;;;;5040642;28;20067;-64
2023/03/09 01:49:36;;;;;;;1.23;0.73;;;18.90;50.00;;;;;;5051896;28;20464;-64
2023/03/09 01:52:15;;;;;;;1.73;0.82;;;18.90;50.00;;;;;;5052503;28;20045;-64
2023/03/09 01:54:42;;;;;;;0.90;0.65;;;18.90;50.00;;;;;;5052104;28;20041;-63
2023/03/09 01:57:34;;;;;;;1.35;0.80;;;18.90;50.00;;;;;;5045628;28;20053;-63
2023/03/09 02:00:05;;;;;;;1.38;0.73;;;18.90;50.10;;;;;;5033925;28;20045;-64
2023/03/09 02:02:31;;;;;;;2.22;0.90;;;18.80;50.00;;;;;;5033339;28;20486;-64
2023/03/09 02:05:00;;;;;;;1.50;0.70;;;18.80;50.00;;;;;;5031659;28;20497;-64
2023/03/09 02:07:25;;;;;;;1.80;0.82;;;18.80;50.00;;;;;;5033000;28;20116;-64
2023/03/09 02:10:17;;;;;;;1.65;0.70;;;18.80;50.00;;;;;;5033813;28;20131;-64
2023/03/09 02:12:44;;;;;;;1.40;0.70;;;18.80;50.00;;;;;;5031844;28;20049;-64
2023/03/09 02:15:10;;;;;;;1.02;0.63;;;18.90;50.10;;;;;;5016031;28;20408;-64
2023/03/09 02:17:35;;;;;;;1.60;0.70;;;18.90;50.10;;;;;;5032489;28;20542;-63
2023/03/09 02:20:07;;;;;;;1.23;0.70;;;18.90;50.10;;;;;;5032017;28;20397;-63
2023/03/09 02:22:34;;;;;;;0.95;0.65;;;18.90;50.10;;;;;;5032861;28;20060;-64
2023/03/09 02:25:09;;;;;;;1.58;0.80;;;18.90;50.20;;;;;;5032865;28;20103;-64
2023/03/09 02:27:35;;;;;;;1.02;0.55;;;18.90;50.20;;;;;;5033302;28;20049;-64
2023/03/09 02:30:00;;;;;;;1.00;0.68;;;18.90;50.20;;;;;;5032970;28;20048;-65
2023/03/09 02:32:28;;;;;;;1.77;0.90;;;18.80;50.10;;;;;;5030438;28;20037;-64
2023/03/09 02:34:55;;;;;;;1.25;0.75;;;18.90;50.10;;;;;;5032296;28;20037;-65
2023/03/09 02:37:25;;;;;;;1.23;0.70;;;18.90;50.10;;;;;;5033553;28;20045;-64
2023/03/09 02:39:52;;;;;;;1.05;0.70;;;18.90;50.10;;;;;;5032057;28;20041;-64
2023/03/09 02:42:20;;;;;;;0.70;0.60;;;18.90;50.10;;;;;;5031718;28;20464;-64
2023/03/09 02:44:46;;;;;;;1.98;0.80;;;18.90;50.10;;;;;;5015289;28;20083;-63
2023/03/09 02:47:19;;;;;;;1.08;0.55;;;18.90;50.10;;;;;;5031166;28;20045;-64
2023/03/09 02:49:45;;;;;;;1.33;0.65;;;18.90;50.10;;;;;;5033062;28;20080;-64
2023/03/09 02:52:11;;;;;;;1.80;0.70;;;18.90;50.10;;;;;;5032969;28;20038;-64
2023/03/09 02:54:36;;;;;;;1.48;0.65;;;18.90;50.10;;;;;;5031838;28;20041;-64
2023/03/09 02:57:02;;;;;;;1.70;0.70;;;18.90;50.10;;;;;;5032924;28;20092;-63
2023/03/09 02:59:27;;;;;;;1.20;0.77;;;18.90;50.00;;;;;;5032367;28;20057;-64
2023/03/09 03:01:53;;;;;;;1.10;0.70;;;18.90;50.10;;;;;;5021175;28;20079;-64
2023/03/09 03:04:18;;;;;;;1.10;0.70;;;18.90;50.10;;;;;;5032481;28;20079;-64
2023/03/09 03:06:44;;;;;;;1.17;0.60;;;18.90;50.10;;;;;;5013786;28;20107;-64
2023/03/09 03:09:10;;;;;;;0.82;0.50;;;18.90;50.00;;;;;;5032005;28;20119;-65
2023/03/09 03:11:35;;;;;;;1.92;0.70;;;19.00;50.10;;;;;;5032561;28;20448;-63
2023/03/09 03:14:01;;;;;;;1.27;0.73;;;19.00;50.10;;;;;;5032073;28;20120;-63
2023/03/09 03:16:27;;;;;;;1.27;0.60;;;19.00;50.10;;;;;;5032234;28;20042;-64
2023/03/09 03:18:52;;;;;;;1.30;0.60;;;19.00;50.20;;;;;;5032091;28;20046;-63
2023/03/09 03:21:18;;;;;;;1.05;0.60;;;19.00;50.10;;;;;;5032028;28;20041;-64
2023/03/09 03:23:43;;;;;;;0.93;0.60;;;19.00;50.10;;;;;;5032196;28;20473;-64
2023/03/09 03:26:09;;;;;;;1.02;0.60;;;19.00;50.10;;;;;;5051209;28;20041;-63
2023/03/09 03:28:35;;;;;;;0.65;0.55;;;19.00;50.10;;;;;;5036848;28;20072;-64
2023/03/09 03:31:01;;;;;;;1.42;0.73;;;19.00;50.20;;;;;;5032261;28;20477;-65
2023/03/09 03:33:26;;;;;;;0.82;0.50;;;19.00;50.20;;;;;;5032337;28;20136;-64
2023/03/09 03:35:52;;;;;;;1.02;0.60;;;19.00;50.10;;;;;;5030617;28;20049;-63
2023/03/09 03:38:17;;;;;;;1.30;0.63;;;19.00;50.20;;;;;;5030075;28;20041;-63
2023/03/09 03:40:43;;;;;;;1.00;0.50;;;19.00;50.10;;;;;;5032206;28;20123;-64
2023/03/09 03:43:09;;;;;;;1.23;0.70;;;19.00;50.20;;;;;;5030232;28;20054;-64
2023/03/09 03:45:34;;;;;;;1.38;0.50;;;19.00;50.20;;;;;;5031811;28;20095;-64
2023/03/09 03:48:00;;;;;;;1.42;0.50;;;19.00;50.20;;;;;;5032273;28;20429;-64
2023/03/09 03:50:25;;;;;;;1.50;0.60;;;19.00;50.20;;;;;;5031228;28;20053;-64
2023/03/09 03:52:51;;;;;;;1.40;0.60;;;19.00;50.20;;;;;;5032199;28;20042;-63
2023/03/09 03:55:16;;;;;;;0.70;0.50;;;19.10;50.20;;;;;;5032500;28;20512;-64
2023/03/09 03:57:42;;;;;;;1.17;0.60;;;19.00;50.20;;;;;;5031113;28;20049;-64
2023/03/09 04:00:10;;;;;;;1.73;0.70;;;19.00;50.20;;;;;;5031830;28;20040;-64
2023/03/09 04:02:36;;;;;;;0.80;0.50;;;19.10;50.20;;;;;;5031984;28;20056;-64
2023/03/09 04:05:02;;;;;;;1.05;0.50;;;19.10;50.20;;;;;;5029187;28;20050;-64
2023/03/09 04:07:27;;;;;;;1.45;0.60;;;19.10;50.10;;;;;;5031550;28;20038;-64
2023/03/09 04:09:53;;;;;;;1.02;0.55;;;19.10;50.10;;;;;;5030953;28;20076;-64
2023/03/09 04:12:19;;;;;;;1.00;0.70;;;19.10;50.10;;;;;;5032120;28;20179;-64
2023/03/09 04:14:44;;;;;;;1.15;0.55;;;19.10;50.10;;;;;;5031955;28;20034;-64
2023/03/09 04:17:10;;;;;;;1.02;0.60;;;19.10;50.20;;;;;;5031178;28;20132;-64
2023/03/09 04:19:36;;;;;;;0.65;0.60;;;19.20;50.30;;;;;;5030483;28;20045;-63
2023/03/09 04:22:02;;;;;;;0.93;0.50;;;19.20;50.30;;;;;;5031471;28;20041;-63
2023/03/09 04:24:27;;;;;;;0.88;0.52;;;19.20;50.20;;;;;;5029066;28;20041;-64
2023/03/09 04:26:53;;;;;;;0.93;0.60;;;19.20;50.20;;;;;;5031791;28;20053;-64
2023/03/09 04:29:18;;;;;;;0.90;0.50;;;19.20;50.20;;;;;;5031972;28;20120;-63
2023/03/09 04:31:44;;;;;;;1.23;0.60;;;19.20;50.20;;;;;;5034063;28;20125;-64
2023/03/09 04:34:10;;;;;;;1.63;0.70;;;19.20;50.20;;;;;;5034206;28;20046;-64
2023/03/09 04:36:36;;;;;;;1.35;0.80;;;19.20;50.20;;;;;;5033838;28;20451;-64
2023/03/09 04:39:01;;;;;;;1.77;0.52;;;19.20;50.90;;;;;;5034656;28;20473;-64
2023/03/09 04:41:27;;;;;;;1.02;0.57;;;19.30;50.20;;;;;;5035241;28;20404;-63
2023/03/09 04:43:52;;;;;;;0.85;0.52;;;19.30;50.20;;;;;;5035110;28;20095;-64
2023/03/09 04:46:18;;;;;;;0.88;0.50;;;19.30;50.30;;;;;;5034394;28;20469;-64
2023/03/09 04:48:44;;;;;;;1.67;0.60;;;19.30;50.20;;;;;;5035028;28;20140;-64
2023/03/09 04:51:09;;;;;;;1.52;0.70;;;19.30;50.20;;;;;;5037529;28;20053;-64
2023/03/09 04:53:35;;;;;;;3.25;1.23;;;19.30;50.20;;;;;;5042846;28;20382;-64
2023/03/09 04:56:00;;;;;;;0.85;0.57;;;19.30;50.20;;;;;;5035155;28;20072;-64
2023/03/09 04:58:26;;;;;;;1.17;0.68;;;19.30;50.20;;;;;;5035174;28;20038;-64
2023/03/09 05:00:52;;;;;;;1.40;0.50;;;19.30;50.10;;;;;;5033893;28;20037;-64
2023/03/09 05:03:17;;;;;;;1.45;0.68;;;19.30;50.20;;;;;;5030752;28;20034;-64
2023/03/09 05:05:43;;;;;;;1.20;0.60;;;19.30;50.20;;;;;;5014191;28;20077;-64
2023/03/09 05:08:08;;;;;;;0.60;0.50;;;19.40;50.20;;;;;;5018743;28;20060;-64
2023/03/09 05:10:54;;;;;;;0.70;0.50;;;19.40;50.30;;;;;;5034463;28;20045;-64
2023/03/09 05:13:20;;;;;;;1.00;0.50;;;19.40;50.20;;;;;;5033867;28;20056;-64
2023/03/09 05:15:45;;;;;;;1.48;0.60;;;19.40;50.20;;;;;;5040359;28;20048;-64
2023/03/09 05:18:11;;;;;;;0.77;0.52;;;19.40;50.30;;;;;;5049427;28;20105;-64
2023/03/09 05:20:37;;;;;;;1.05;0.70;;;19.40;50.20;;;;;;5032664;28;20075;-64
2023/03/09 05:23:03;;;;;;;0.77;0.50;;;19.40;50.20;;;;;;5034866;28;20049;-64
2023/03/09 05:25:29;;;;;;;1.15;0.50;;;19.40;50.10;;;;;;5034317;28;20045;-64
2023/03/09 05:27:54;;;;;;;0.77;0.50;;;19.40;50.10;;;;;;5032669;28;20041;-64
2023/03/09 05:30:20;;;;;;;0.90;0.50;;;19.50;50.20;;;;;;5034794;28;20049;-64
2023/03/09 05:32:46;;;;;;;0.65;0.50;;;19.40;50.10;;;;;;5033383;28;20139;-64
2023/03/09 05:35:12;;;;;;;0.85;0.55;;;19.50;50.20;;;;;;5032938;28;20129;-64
2023/03/09 05:37:38;;;;;;;0.88;0.60;;;19.50;50.10;;;;;;5033890;28;20138;-64
2023/03/09 05:40:04;;;;;;;0.70;0.50;;;19.50;50.20;;;;;;5049643;28;20488;-64
2023/03/09 05:42:31;;;;;;;0.90;0.60;;;19.50;50.90;;;;;;5051930;28;20061;-64
2023/03/09 05:44:56;;;;;;;0.73;0.60;;;19.50;50.10;;;;;;5036188;28;20180;-64
2023/03/09 05:47:22;;;;;;;0.70;0.50;;;19.50;50.20;;;;;;5032873;28;20073;-64
2023/03/09 05:49:48;;;;;;;1.45;0.63;;;19.50;50.10;;;;;;5032884;28;20041;-64
2023/03/09 05:52:14;;;;;;;0.90;0.47;;;19.50;50.10;;;;;;5032738;28;20512;-64
2023/03/09 05:54:39;;;;;;;0.73;0.50;;;19.50;50.10;;;;;;5034086;28;20544;-64
2023/03/09 05:57:05;;;;;;;1.23;0.60;;;19.60;50.10;;;;;;5033147;28;20060;-63
2023/03/09 05:59:31;;;;;;;0.80;0.60;;;19.60;50.10;;;;;;5033742;28;20049;-63
2023/03/09 06:01:56;;;;;;;0.50;0.40;;;19.60;50.10;;;;;;5033948;28;20493;-64
2023/03/09 06:04:22;;;;;;;0.80;0.47;;;19.60;50.10;;;;;;5032117;28;20365;-64
2023/03/09 06:06:47;;;;;;;0.95;0.60;;;19.60;50.10;;;;;;5033971;28;20037;-64
2023/03/09 06:09:13;;;;;;;0.70;0.50;;;19.60;50.10;;;;;;5033612;28;20394;-64
2023/03/09 06:11:38;;;;;;;0.60;0.50;;;19.60;50.10;;;;;;5032499;28;20041;-64
2023/03/09 06:14:04;;;;;;;0.65;0.50;;;19.60;50.00;;;;;;5034043;28;20049;-64
2023/03/09 06:16:30;;;;;;;0.50;0.40;;;19.60;50.10;;;;;;5032530;28;20069;-64
2023/03/09 06:18:55;;;;;;;0.70;0.50;;;19.60;50.00;;;;;;5033684;28;20099;-64
2023/03/09 06:21:21;;;;;;;0.70;0.50;;;19.60;50.00;;;;;;5036275;28;20044;-64
2023/03/09 06:23:46;;;;;;;0.80;0.60;;;19.60;50.00;;;;;;5044370;28;20152;-64
2023/03/09 06:26:12;;;;;;;0.80;0.57;;;19.60;50.00;;;;;;5031823;28;20056;-63
2023/03/09 06:28:38;;;;;;;0.88;0.50;;;19.70;50.70;;;;;;5031955;28;20115;-63
2023/03/09 06:31:07;;;;;;;1.05;0.70;;;19.70;50.00;;;;;;5031420;28;20045;-63
2023/03/09 06:33:33;;;;;;;0.40;0.40;;;19.70;50.00;;;;;;5033028;28;20045;-63
2023/03/09 06:36:00;;;;;;;0.50;0.40;;;19.70;50.00;;;;;;5033554;28;20558;-63
2023/03/09 06:38:26;;;;;;;0.90;0.50;;;19.70;50.10;;;;;;5031167;28;20069;-63
2023/03/09 06:40:55;;;;;;;1.40;0.70;;;19.70;50.10;;;;;;5033196;28;20073;-63
2023/03/09 06:43:21;;;;;;;1.42;0.55;;;19.70;50.00;;;;;;5033123;28;20053;-63
2023/03/09 06:45:46;;;;;;;0.60;0.50;;;19.70;50.00;;;;;;5031879;28;20038;-63
2023/03/09 06:48:12;;;;;;;0.90;0.57;;;19.70;50.00;;;;;;5032472;28;20041;-64
2023/03/09 06:50:37;;;;;;;0.75;0.50;;;19.70;50.00;;;;;;5032464;28;20126;-63
2023/03/09 06:53:03;;;;;;;1.02;0.60;;;19.70;50.00;;;;;;5032347;28;20382;-64
2023/03/09 06:55:29;;;;;;;0.98;0.60;;;19.70;50.00;;;;;;5033010;28;20044;-64
2023/03/09 06:57:54;;;;;;;0.93;0.60;;;19.70;50.00;;;;;;5033357;28;20045;-64
2023/03/09 07:00:20;;;;;;;0.98;0.60;;;19.70;50.70;;;;;;5031979;28;20037;-64
2023/03/09 07:02:46;;;;;;;1.20;0.60;;;19.70;50.00;;;;;;5032688;28;20052;-64
2023/03/09 07:05:12;;;;;;;1.00;0.60;;;19.70;50.00;;;;;;5032651;28;20041;-64
2023/03/09 07:07:37;;;;;;;0.70;0.47;;;19.80;50.00;;;;;;5031949;28;20084;-64
2023/03/09 07:10:04;;;;;;;0.82;0.60;;;19.70;50.00;;;;;;5031144;28;20133;-64
2023/03/09 07:12:29;;;;;;;0.60;0.50;;;19.80;50.00;;;;;;5032406;28;20096;-64
2023/03/09 07:14:55;;;;;;;0.57;0.40;;;19.80;50.00;;;;;;5031011;28;20042;-64
2023/03/09 07:17:21;;;;;;;1.67;0.65;;;19.80;50.00;;;;;;5032549;28;20049;-64
2023/03/09 07:19:46;;;;;;;1.10;0.60;;;19.80;50.10;;;;;;5031399;28;20128;-64
2023/03/09 07:22:12;;;;;;;0.75;0.50;;;19.80;50.00;;;;;;5032543;28;20055;-64
2023/03/09 07:24:38;;;;;;;0.82;0.50;;;19.80;50.00;;;;;;5032402;28;20106;-63
2023/03/09 07:27:04;;;;;;;0.75;0.50;;;19.80;50.00;;;;;;5031911;28;20049;-63
2023/03/09 07:29:29;;;;;;;0.73;0.68;;;19.80;50.00;;;;;;5030928;28;20046;-64
2023/03/09 07:31:55;;;;;;;0.93;0.50;;;19.90;50.10;;;;;;5032756;28;20038;-64
2023/03/09 07:34:20;;;;;;;0.73;0.55;;;19.80;50.00;;;;;;5031105;28;20048;-64
2023/03/09 07:36:47;;;;;;;0.90;0.60;;;19.80;50.00;;;;;;5032325;28;20128;-64
2023/03/09 07:39:12;;;;;;;0.60;0.57;;;19.80;50.00;;;;;;5035532;28;20049;-64
2023/03/09 07:41:38;;;;;;;0.80;0.60;;;19.80;50.00;;;;;;5051068;28;20094;-66
2023/03/09 07:44:03;;;;;;;1.42;0.60;;;19.90;50.00;;;;;;5047455;28;20520;-66
2023/03/09 07:46:29;;;;;;;1.65;0.80;;;19.90;50.00;;;;;;5032010;28;20045;-65
2023/03/09 07:48:54;;;;;;;3.90;1.10;;;19.90;49.90;;;;;;5031750;28;20430;-66
2023/03/09 07:51:21;;;;;;;2.40;0.75;;;19.90;49.90;;;;;;5032336;28;20108;-65
2023/03/09 07:53:47;;;;;;;1.70;0.77;;;19.90;49.90;;;;;;5030478;28;20045;-65
2023/03/09 07:56:15;;;;;;;1.23;0.80;;;19.90;49.90;;;;;;5037835;28;20120;-65
2023/03/09 07:58:41;;;;;;;3.03;0.80;;;19.90;50.00;;;;;;5050920;28;20041;-65
2023/03/09 08:01:13;;;;;;;2.67;0.70;;;19.90;49.90;;;;;;5032059;28;20042;-65
2023/03/09 08:03:39;;;;;;;1.80;0.80;;;20.00;50.00;;;;;;5030545;28;20037;-65
2023/03/09 08:06:05;;;;;;;1.02;0.75;;;20.00;50.00;;;;;;5035428;28;20131;-65
2023/03/09 08:08:31;;;;;;;1.70;0.82;;;20.00;50.00;;;;;;5035412;28;20120;-64
2023/03/09 08:10:57;;;;;;;2.35;0.80;;;20.00;50.10;;;;;;5036329;28;20136;-64
2023/03/09 08:13:23;;;;;;;2.67;0.90;;;20.00;50.30;;;;;;5044274;28;20123;-64
2023/03/09 08:15:49;;;;;;;1.98;0.75;;;20.00;50.40;;;;;;5038743;28;20091;-64
2023/03/09 08:18:14;;;;;;;1.33;0.90;;;20.00;50.50;;;;;;5035399;28;20052;-64
2023/03/09 08:20:40;;;;;;;2.95;0.80;;;20.00;50.60;;;;;;5035584;28;20045;-64
2023/03/09 08:23:09;;;;;;;2.30;0.60;;;20.00;50.60;;;;;;5034978;28;20046;-65
2023/03/09 08:25:34;;;;;;;3.08;0.90;;;20.10;50.70;;;;;;5034103;28;20473;-64
2023/03/09 08:28:00;;;;;;;27.08;1.45;;;20.10;50.70;;;;;;5041901;28;20120;-65
2023/03/09 08:30:25;;;;;;;2.38;0.70;;;20.10;50.70;;;;;;5034728;28;20139;-64
2023/03/09 08:32:51;;;;;;;2.05;0.75;;;20.10;50.80;;;;;;5035476;28;20095;-65
2023/03/09 08:35:18;;;;;;;1.58;0.95;;;20.10;50.90;;;;;;5034593;28;20049;-65
2023/03/09 08:37:44;;;;;;;3.17;0.82;;;20.10;50.90;;;;;;5033179;28;20053;-65
2023/03/09 08:40:12;;;;;;;1.25;0.80;;;20.10;51.00;;;;;;5035405;28;20045;-62
2023/03/09 08:42:41;;;;;;;2.72;0.70;;;20.10;51.30;;;;;;5034665;28;20065;-64
2023/03/09 08:45:13;;;;;;;2.00;0.70;;;20.20;51.40;;;;;;5034745;28;20057;-65
2023/03/09 08:47:39;;;;;;;2.60;0.82;;;20.10;51.50;;;;;;5034969;28;20374;-63
2023/03/09 08:50:06;;;;;;;1.20;0.80;;;20.20;51.60;;;;;;5035364;28;20044;-64
2023/03/09 08:52:34;;;;;;;1.60;1.00;;;20.20;51.70;;;;;;5040095;28;20133;-65
2023/03/09 08:55:01;;;;;;;2.10;0.90;;;20.20;51.70;;;;;;5041358;28;20049;-66
2023/03/09 08:57:27;;;;;;;2.17;0.70;;;20.20;51.80;;;;;;5034123;28;20049;-65
2023/03/09 08:59:52;;;;;;;1.83;0.80;;;20.20;51.90;;;;;;5034812;28;20048;-65
2023/03/09 09:02:18;;;;;;;2.65;0.73;;;20.20;52.00;;;;;;5035147;28;20053;-65
2023/03/09 09:04:44;;;;;;;2.38;1.00;;;20.20;52.00;;;;;;5034696;28;20041;-65
2023/03/09 09:07:10;;;;;;;0.88;0.75;;;20.20;52.00;;;;;;5034258;28;20405;-67
2023/03/09 09:09:39;;;;;;;2.35;0.68;;;20.20;52.00;;;;;;5033385;28;20038;-65
2023/03/09 09:12:05;;;;;;;1.92;0.90;;;20.30;52.10;;;;;;5034529;28;20492;-66
2023/03/09 09:14:32;;;;;;;1.38;0.90;;;20.30;52.10;;;;;;5032954;28;20037;-65
2023/03/09 09:16:58;;;;;;;2.67;1.02;;;20.30;52.70;;;;;;5034082;28;20045;-65
2023/03/09 09:19:26;;;;;;;1.90;0.88;;;20.30;52.00;;;;;;5031617;28;20555;-65
2023/03/09 09:21:52;;;;;;;1.20;0.73;;;20.30;52.20;;;;;;5033801;28;20057;-64
2023/03/09 09:24:18;;;;;;;2.17;0.80;;;20.30;52.30;;;;;;5034587;28;20045;-65
2023/03/09 09:26:44;;;;;;;3.53;0.90;;;20.30;52.40;;;;;;5033069;28;20467;-65
2023/03/09 09:29:10;;;;;;;2.95;0.95;;;20.30;52.30;;;;;;5034354;28;20555;-65
2023/03/09 09:31:36;;;;;;;3.00;1.17;;;20.30;52.40;;;;;;5032261;28;20053;-65
2023/03/09 09:34:01;;;;;;;1.88;1.00;;;20.30;52.40;;;;;;5033457;28;20038;-66
2023/03/09 09:36:27;;;;;;;2.63;0.98;;;20.30;52.40;;;;;;5033701;28;20532;-65
2023/03/09 09:38:53;;;;;;;1.77;1.23;;;20.30;52.30;;;;;;5033947;28;20040;-65
2023/03/09 09:41:37;;;;;;;1.10;0.65;;;20.30;52.40;;;;;;5033246;28;20045;-65
2023/03/09 09:44:09;;;;;;;2.28;1.00;;;20.30;52.40;;;;;;5015385;28;20060;-64
2023/03/09 09:46:35;;;;;;;2.63;0.95;;;20.30;52.40;;;;;;5031729;28;20417;-64
2023/03/09 09:49:03;;;;;;;2.15;1.00;;;20.30;52.40;;;;;;5032160;28;20153;-64
2023/03/09 09:51:46;;;;;;;2.10;1.10;;;20.30;52.40;;;;;;5045727;28;20052;-65
2023/03/09 09:54:38;;;;;;;3.60;0.98;;;20.30;52.40;;;;;;5017997;28;20041;-65
2023/03/09 09:57:09;;;;;;;1.35;1.10;;;20.30;52.40;;;;;;5032382;28;20049;-65
2023/03/09 09:59:41;;;;;;;2.45;1.02;;;20.30;52.40;;;;;;5015674;28;20473;-65
2023/03/09 10:02:22;;;;;;;2.17;0.95;;;20.30;52.40;;;;;;5014813;28;20059;-65
2023/03/09 10:04:56;;;;;;;2.08;1.00;;;20.30;52.40;;;;;;5032247;28;20136;-65
2023/03/09 10:07:22;;;;;;;4.88;1.20;;;20.20;52.20;;;;;;5016298;28;20045;-66
2023/03/09 10:09:54;;;;;;;1.30;0.95;;;20.20;52.10;;;;;;5030569;28;20052;-65
2023/03/09 10:12:20;;;;;;;1.63;1.20;;;20.20;52.10;;;;;;5016965;28;20270;-67
2023/03/09 10:14:55;;;;;;;1.55;1.10;;;20.20;52.20;;;;;;5033671;28;20116;-65
2023/03/09 10:17:34;;;;;;;2.15;1.30;;;20.20;52.20;;;;;;5031317;28;20053;-66
2023/03/09 10:20:09;;;;;;;2.30;1.35;;;20.20;52.10;;;;;;5015526;28;20045;-66
2023/03/09 10:22:35;;;;;;;2.28;1.20;;;20.20;52.10;;;;;;5031108;28;20797;-62
2023/03/09 10:25:00;;;;;;;4.03;1.60;;;20.20;51.80;;;;;;5031838;28;20037;-69
2023/03/09 10:27:40;;;;;;;1.23;1.10;;;20.10;51.80;;;;;;5036642;28;20512;-68
2023/03/09 10:30:51;;;;;;;3.90;1.52;;;20.10;51.70;;;;;;5049323;28;20045;-68
2023/03/09 10:33:42;;;;;;;1.73;1.27;;;20.10;51.60;;;;;;5032782;28;20057;-68
2023/03/09 10:36:10;;;;;;;1.73;1.10;;;20.10;51.60;;;;;;5048711;28;20052;-67
2023/03/09 10:38:38;;;;;;;2.35;1.23;;;20.10;51.60;;;;;;5050848;28;20044;-68
2023/03/09 10:41:05;;;;;;;2.10;1.50;;;20.10;51.70;;;;;;5053524;28;20056;-69
2023/03/09 10:43:35;;;;;;;3.15;1.50;;;20.00;51.60;;;;;;5041148;28;20053;-67
2023/03/09 10:46:20;;;;;;;3.15;1.40;;;20.00;51.60;;;;;;5031578;28;20474;-71
2023/03/09 10:48:47;;;;;;;2.63;1.42;;;20.10;52.10;;;;;;5033500;28;20052;-67
2023/03/09 10:51:40;;;;;;;2.35;1.42;;;20.00;52.20;;;;;;5031662;28;20053;-68
2023/03/09 10:54:29;;;;;;;3.58;1.52;;;20.00;52.50;;;;;;5005108;28;20050;-67
2023/03/09 10:56:54;;;;;;;2.10;1.55;;;20.00;52.50;;;;;;5024871;28;20068;-67
2023/03/09 10:59:27;;;;;;;3.53;1.42;;;20.00;52.10;;;;;;5015256;28;20482;-69
2023/03/09 11:01:59;;;;;;;4.50;1.38;;;20.00;52.20;;;;;;5019930;28;20409;-70
2023/03/09 11:04:26;;;;;;;8.32;1.77;;;20.00;52.30;;;;;;5026329;28;20167;-70
2023/03/09 11:06:55;;;;;;;9.85;2.28;;;20.10;52.50;;;;;;5031574;28;20037;-68
2023/03/09 11:09:33;;;;;;;10.65;1.90;;;20.00;52.50;;;;;;5030593;28;20441;-68
2023/03/09 11:12:10;;;;;;;5.97;1.83;;;20.00;52.60;;;;;;5052249;28;20049;-69
2023/03/09 11:14:42;;;;;;;7.05;1.98;;;20.00;52.50;;;;;;5051908;28;20444;-68
2023/03/09 11:17:31;;;;;;;8.90;1.70;;;20.00;52.50;;;;;;5051216;28;20044;-68
2023/03/09 11:20:12;;;;;;;6.13;1.65;;;20.00;52.40;;;;;;5050655;28;20484;-69
2023/03/09 11:22:39;;;;;;;8.52;1.70;;;20.10;52.40;;;;;;5052316;28;20477;-69
2023/03/09 11:25:10;;;;;;;5.80;1.70;;;20.00;52.30;;;;;;5035408;28;20052;-68
2023/03/09 11:27:36;;;;;;;5.60;1.73;;;20.00;52.30;;;;;;5011686;28;20347;-69
2023/03/09 11:30:15;;;;;;;4.95;1.80;;;20.00;52.30;;;;;;5014348;28;20037;-68
2023/03/09 11:32:40;;;;;;;3.88;1.58;;;20.00;52.50;;;;;;5045162;28;20055;-68
2023/03/09 11:35:08;;;;;;;8.88;1.65;;;20.00;52.60;;;;;;5050442;28;20041;-65
2023/03/09 11:37:38;;;;;;;3.63;1.70;;;20.00;52.70;;;;;;5028225;28;20116;-65
2023/03/09 11:40:17;;;;;;;5.07;1.95;;;20.00;52.70;;;;;;5029692;28;20081;-66
2023/03/09 11:42:47;;;;;;;7.15;2.17;;;20.00;52.70;;;;;;5032170;28;20053;-65
2023/03/09 11:45:17;;;;;;;6.72;1.90;;;20.00;52.70;;;;;;5032343;28;20053;-66
2023/03/09 11:47:44;;;;;;;6.00;1.80;;;20.00;52.80;;;;;;5014038;28;20045;-65
2023/03/09 11:50:21;;;;;;;5.00;1.85;;;20.00;52.80;;;;;;5031539;28;20095;-64
2023/03/09 11:52:58;;;;;;;3.47;1.65;;;20.00;52.80;;;;;;5014610;28;20045;-67
2023/03/09 11:55:27;;;;;;;5.00;1.90;;;20.00;52.90;;;;;;5021936;28;20041;-62
2023/03/09 11:57:56;;;;;;;4.32;1.85;;;20.00;53.00;;;;;;4997083;28;20485;-66
2023/03/09 12:00:22;;;;;;;4.22;2.20;;;20.00;53.10;;;;;;5025749;28;20100;-65
2023/03/09 12:03:09;;;;;;;3.33;2.00;;;20.00;53.20;;;;;;5019976;28;20041;-64
2023/03/09 12:05:36;;;;;;;5.22;2.05;;;20.00;53.30;;;;;;5024971;28;20048;-64
2023/03/09 12:08:15;;;;;;;3.60;1.67;;;20.00;53.40;;;;;;5031327;28;20088;-64
2023/03/09 12:10:43;;;;;;;4.68;1.90;;;20.00;53.50;;;;;;5027169;28;20053;-64
2023/03/09 12:13:17;;;;;;;3.10;1.75;;;20.00;53.50;;;;;;5017061;28;20045;-68
2023/03/09 12:15:53;;;;;;;3.47;1.90;;;20.00;53.50;;;;;;5029458;28;20057;-70
2023/03/09 12:18:23;;;;;;;6.88;2.22;;;20.00;53.50;;;;;;5021804;28;20399;-69
2023/03/09 12:20:57;;;;;;;3.15;2.10;;;20.00;53.50;;;;;;5031097;28;20688;-68
2023/03/09 12:23:34;;;;;;;4.10;2.03;;;20.00;53.50;;;;;;5029281;28;20396;-70
2023/03/09 12:26:04;;;;;;;5.93;2.45;;;20.10;53.60;;;;;;5012676;28;20045;-70
2023/03/09 12:28:30;;;;;;;4.47;2.08;;;20.00;53.50;;;;;;5031896;28;20087;-70
2023/03/09 12:30:57;;;;;;;4.03;1.95;;;20.10;53.40;;;;;;5030075;28;20077;-71
2023/03/09 12:33:56;;;;;;;5.38;2.38;;;20.10;53.30;;;;;;5031759;28;20053;-70
2023/03/09 12:36:24;;;;;;;9.02;2.70;;;20.10;53.30;;;;;;5018728;28;20172;-72
2023/03/09 12:39:08;;;;;;;;;;;20.10;53.30;;;;;;5032399;28;20393;-72
2023/03/09 12:41:57;;;;;;;5.97;2.72;;;20.10;53.20;;;;;;5027586;28;19975;-73
2023/03/09 12:44:47;;;;;;;7.60;2.90;;;20.10;53.30;;;;;;5031025;28;20371;-72
2023/03/09 12:47:35;;;;;;;5.75;2.30;;;20.10;53.20;;;;;;5031936;28;20045;-73
2023/03/09 12:50:01;;;;;;;;;;;20.10;53.20;;;;;;5032228;28;20042;-72
2023/03/09 12:52:52;;;;;;;6.72;3.00;;;20.10;53.20;;;;;;5034334;28;20058;-72
2023/03/09 12:55:28;;;;;;;5.38;2.22;;;20.00;53.10;;;;;;5030514;28;20055;-72